Time;durP1;ratioP1;P1;durP2;ratioP2;P2;SDS_P1;SDS_P2;PMS_P1;PMS_P2;Temp;Humidity;BMP_temperature;BMP_pressure;BME280_temperature;BME280_humidity;BME280_pressure;Samples;Min_cycle;Max_cycle;Signal;HPM_P1;HPM_P2
2023/10/22 00:03:29;;;;;;;5.10;0.73;;;;;;;16.29;77.41;99020.84;8446017;27;20055;-61
2023/10/22 00:07:30;;;;;;;2.85;0.70;;;;;;;16.22;77.87;99018.13;8449480;28;20054;-61
2023/10/22 00:11:30;;;;;;;1.98;0.45;;;;;;;16.29;77.73;99015.41;8452772;28;20525;-61
2023/10/22 00:15:31;;;;;;;4.97;0.88;;;;;;;16.35;77.35;99030.91;8451241;28;20526;-60
2023/10/22 00:19:31;;;;;;;2.08;0.40;;;;;;;16.22;78.01;99037.22;8452063;28;20055;-61
2023/10/22 00:23:32;;;;;;;2.45;0.35;;;;;;;16.35;77.78;99020.00;8452350;28;20094;-61
2023/10/22 00:27:32;;;;;;;5.45;1.15;;;;;;;16.26;78.27;99043.09;8451856;28;20637;-61
2023/10/22 00:31:33;;;;;;;6.72;0.50;;;;;;;16.16;78.83;99050.88;8451791;27;20459;-61
2023/10/22 00:35:33;;;;;;;2.38;0.50;;;;;;;16.11;79.42;99050.66;8451188;28;20578;-61
2023/10/22 00:39:34;;;;;;;2.83;0.65;;;;;;;16.23;79.14;99035.34;8452461;28;20047;-61
2023/10/22 00:43:34;;;;;;;2.80;0.45;;;;;;;16.27;78.98;99044.75;8452982;28;20063;-61
2023/10/22 00:47:36;;;;;;;4.00;0.30;;;;;;;16.27;78.89;99039.31;8452457;28;20043;-61
2023/10/22 00:51:37;;;;;;;2.92;0.45;;;;;;;16.22;79.49;99048.13;8452414;28;20040;-61
2023/10/22 00:55:39;;;;;;;3.38;0.73;;;;;;;16.29;79.21;99048.13;8452455;28;20067;-61
2023/10/22 00:59:41;;;;;;;2.13;0.50;;;;;;;16.15;79.84;99051.91;8444044;27;20417;-61
2023/10/22 01:03:41;;;;;;;1.48;0.40;;;;;;;16.21;79.42;99056.50;8453103;27;20390;-61
2023/10/22 01:07:42;;;;;;;0.98;0.20;;;;;;;16.23;79.48;99059.88;8455317;27;20058;-59
2023/10/22 01:12:01;;;;;;;4.00;0.50;;;;;;;16.23;79.53;99068.91;8450100;27;20043;-62
2023/10/22 01:16:04;;;;;;;7.00;0.68;;;;;;;16.24;79.50;99072.44;8402138;27;20118;-61
2023/10/22 01:20:05;;;;;;;1.33;0.40;;;;;;;16.11;80.37;99072.47;8403786;28;20044;-62
2023/10/22 01:24:06;;;;;;;1.27;0.20;;;;;;;16.03;80.91;99081.72;8399770;27;20567;-61
2023/10/22 01:28:07;;;;;;;2.20;0.30;;;;;;;15.97;81.62;99084.41;8401293;28;20027;-62
2023/10/22 01:32:08;;;;;;;0.75;0.20;;;;;;;16.07;81.85;99093.03;8404106;27;20058;-61
2023/10/22 01:36:08;;;;;;;1.20;0.40;;;;;;;15.86;83.90;99096.81;8400650;28;20323;-62
2023/10/22 01:40:09;;;;;;;2.80;0.20;;;;;;;15.91;83.25;99104.34;8408053;28;20139;-59
2023/10/22 01:44:10;;;;;;;2.05;0.30;;;;;;;15.87;83.43;99105.81;8456918;27;20040;-60
2023/10/22 01:48:10;;;;;;;0.90;0.30;;;;;;;15.94;83.02;99103.91;8455834;27;20677;-59
2023/10/22 01:52:11;;;;;;;1.25;0.30;;;;;;;15.91;82.72;99116.09;8455911;28;20156;-58
2023/10/22 01:56:11;;;;;;;2.15;0.40;;;;;;;15.90;83.21;99111.69;8457122;28;20039;-59
2023/10/22 02:00:12;;;;;;;1.88;0.20;;;;;;;15.94;83.36;99114.81;8457115;27;20050;-64
2023/10/22 02:04:15;;;;;;;1.20;0.20;;;;;;;15.90;83.57;99119.03;8454231;27;20497;-64
2023/10/22 02:08:16;;;;;;;0.32;0.10;;;;;;;16.01;83.00;99126.59;8455078;27;20409;-58
2023/10/22 02:12:16;;;;;;;1.60;0.20;;;;;;;15.90;83.94;99119.03;8456180;28;20532;-58
2023/10/22 02:16:17;;;;;;;0.47;0.20;;;;;;;16.05;83.33;99130.56;8456055;28;20040;-58
2023/10/22 02:20:19;;;;;;;0.95;0.20;;;;;;;15.88;84.36;99132.84;8455366;27;20049;-64
2023/10/22 02:24:20;;;;;;;2.03;0.17;;;;;;;15.76;85.73;99134.53;8455797;27;20055;-64
2023/10/22 02:28:20;;;;;;;0.43;0.20;;;;;;;15.79;85.57;99138.75;8454376;27;20042;-61
2023/10/22 02:32:21;;;;;;;3.05;0.30;;;;;;;15.81;85.58;99133.91;8455652;27;20104;-61
2023/10/22 02:36:22;;;;;;;1.85;0.20;;;;;;;15.84;86.47;99141.66;8452265;28;20081;-61
2023/10/22 02:40:23;;;;;;;2.00;0.20;;;;;;;15.83;86.68;99150.88;8440030;28;20097;-62
2023/10/22 02:44:23;;;;;;;0.88;0.13;;;;;;;15.67;87.70;99152.94;8401754;28;20340;-62
2023/10/22 02:48:24;;;;;;;0.50;0.20;;;;;;;15.67;87.85;99146.66;8400738;28;20032;-62
2023/10/22 02:52:24;;;;;;;1.17;0.10;;;;;;;15.66;87.85;99154.00;8400941;28;20062;-62
2023/10/22 02:56:26;;;;;;;0.65;0.20;;;;;;;15.59;89.22;99161.31;8400263;27;20096;-61
2023/10/22 03:00:27;;;;;;;0.80;0.20;;;;;;;15.59;89.33;99172.19;8400396;27;20064;-62
2023/10/22 03:04:28;;;;;;;1.38;0.28;;;;;;;15.60;89.15;99165.72;8398435;28;20413;-62
2023/10/22 03:08:28;;;;;;;0.82;0.10;;;;;;;15.52;90.72;99165.91;8394003;28;20036;-59
2023/10/22 03:12:29;;;;;;;0.28;0.10;;;;;;;15.51;91.07;99174.28;8453368;28;20349;-59
2023/10/22 03:16:30;;;;;;;1.25;0.10;;;;;;;15.37;92.10;99184.28;8454205;28;20047;-61
2023/10/22 03:20:32;;;;;;;1.08;0.15;;;;;;;15.22;93.60;99186.28;8454099;28;20443;-64
2023/10/22 03:24:33;;;;;;;0.17;0.10;;;;;;;15.19;94.41;99200.28;8453896;28;20047;-64
2023/10/22 03:28:35;;;;;;;0.98;0.20;;;;;;;15.18;94.49;99201.34;8453337;28;20444;-64
2023/10/22 03:32:36;;;;;;;0.20;0.10;;;;;;;15.11;95.15;99205.09;8457018;27;20044;-64
2023/10/22 03:36:37;;;;;;;0.55;0.10;;;;;;;14.99;95.78;99210.25;8452747;28;20039;-64
2023/10/22 03:40:37;;;;;;;1.10;0.20;;;;;;;14.98;96.79;99211.28;8435480;28;20043;-61
2023/10/22 03:44:38;;;;;;;0.52;0.10;;;;;;;14.95;97.45;99217.13;8453708;27;20036;-60
2023/10/22 03:48:38;;;;;;;0.32;0.10;;;;;;;14.98;98.27;99227.59;8452646;27;20417;-59
2023/10/22 03:52:40;;;;;;;0.20;0.10;;;;;;;14.92;98.54;99241.19;8452847;28;20497;-65
2023/10/22 03:56:41;;;;;;;0.32;0.10;;;;;;;14.81;99.10;99237.13;8452947;28;20466;-64
2023/10/22 04:00:41;;;;;;;0.20;0.10;;;;;;;14.84;99.02;99247.63;8453963;27;20434;-64
2023/10/22 04:04:42;;;;;;;0.45;0.10;;;;;;;14.86;98.75;99256.44;8450123;28;20044;-65
2023/10/22 04:08:43;;;;;;;0.30;0.00;;;;;;;14.92;97.94;99243.91;8450012;28;20058;-63
2023/10/22 04:12:43;;;;;;;0.10;0.10;;;;;;;14.82;98.62;99244.25;8409873;28;20044;-61
2023/10/22 04:16:44;;;;;;;0.30;0.00;;;;;;;14.90;98.37;99256.88;8398685;28;20119;-61
2023/10/22 04:20:44;;;;;;;0.40;0.10;;;;;;;14.78;98.75;99262.03;8398571;28;20152;-61
2023/10/22 04:24:45;;;;;;;0.00;0.00;;;;;;;14.78;98.69;99258.44;8398951;28;20043;-61
2023/10/22 04:28:47;;;;;;;0.17;0.10;;;;;;;14.81;98.76;99267.06;8396041;28;20277;-61
2023/10/22 04:32:49;;;;;;;0.50;0.32;;;;;;;14.83;98.69;99269.59;8399253;27;20067;-61
2023/10/22 04:36:50;;;;;;;7.88;0.68;;;;;;;14.89;98.09;99276.97;8397302;27;20032;-61
2023/10/22 04:40:50;;;;;;;0.75;0.10;;;;;;;14.94;97.40;99283.47;8439851;28;20054;-61
2023/10/22 04:44:51;;;;;;;0.10;0.00;;;;;;;14.95;97.07;99285.16;8459255;28;20123;-59
2023/10/22 04:48:51;;;;;;;1.27;0.00;;;;;;;14.97;97.23;99301.28;8457268;27;20554;-59
2023/10/22 04:52:52;;;;;;;3.03;0.75;;;;;;;15.02;97.30;99299.69;8458746;27;20493;-64
2023/10/22 04:56:52;;;;;;;0.00;0.00;;;;;;;14.99;98.12;99313.69;8458015;27;20039;-64
2023/10/22 05:00:53;;;;;;;0.20;0.10;;;;;;;15.00;97.86;99317.22;8461418;27;20050;-63
2023/10/22 05:04:54;;;;;;;1.13;0.10;;;;;;;15.00;98.75;99318.06;8451100;27;20039;-64
2023/10/22 05:08:54;;;;;;;0.00;0.00;;;;;;;14.97;99.09;99309.44;8458442;28;20555;-64
2023/10/22 05:12:55;;;;;;;0.20;0.03;;;;;;;14.98;98.63;99335.66;8458440;27;20134;-63
2023/10/22 05:16:55;;;;;;;0.00;0.00;;;;;;;14.94;99.25;99335.19;8458016;27;20043;-64
2023/10/22 05:21:05;;;;;;;0.00;0.00;;;;;;;14.96;98.91;99338.56;8457217;27;20088;-67
2023/10/22 05:25:06;;;;;;;3.40;0.20;;;;;;;14.89;99.48;99354.00;8454166;28;20401;-62
2023/10/22 05:29:07;;;;;;;0.10;0.03;;;;;;;14.88;100.00;99357.75;8456932;27;20063;-63
2023/10/22 05:33:07;;;;;;;0.80;0.10;;;;;;;14.84;100.00;99366.50;8465531;27;20379;-63
2023/10/22 05:37:08;;;;;;;1.10;0.00;;;;;;;14.85;100.00;99374.47;8456516;27;20040;-63
2023/10/22 05:41:17;;;;;;;0.85;0.13;;;;;;;14.94;100.00;99381.47;8416271;27;20107;-61
2023/10/22 05:45:17;;;;;;;0.75;0.10;;;;;;;14.97;100.00;99389.22;8397748;27;20454;-60
2023/10/22 05:49:20;;;;;;;0.75;0.10;;;;;;;15.03;100.00;99421.13;8401138;28;20063;-60
2023/10/22 05:53:20;;;;;;;0.20;0.20;;;;;;;14.66;100.00;99421.38;8401917;28;20418;-61
2023/10/22 05:57:23;;;;;;;1.35;0.10;;;;;;;14.43;100.00;99425.31;8400390;27;20038;-61
2023/10/22 06:01:24;;;;;;;0.77;0.20;;;;;;;14.30;100.00;99439.56;8398391;27;20040;-61
2023/10/22 06:05:25;;;;;;;0.65;0.25;;;;;;;14.25;100.00;99442.03;8401112;27;20042;-61
2023/10/22 06:09:25;;;;;;;0.90;0.30;;;;;;;14.21;100.00;99458.88;8442731;28;20090;-59
2023/10/22 06:13:26;;;;;;;0.30;0.20;;;;;;;14.11;100.00;99461.88;8454791;28;20040;-60
2023/10/22 06:17:26;;;;;;;1.58;0.30;;;;;;;13.93;100.00;99463.31;8450745;28;20115;-60
2023/10/22 06:21:27;;;;;;;0.35;0.20;;;;;;;13.81;100.00;99476.50;8452839;28;20090;-59
2023/10/22 06:25:28;;;;;;;4.53;0.30;;;;;;;13.79;100.00;99484.00;8455447;27;20059;-60
2023/10/22 06:29:28;;;;;;;1.17;0.30;;;;;;;13.71;100.00;99492.22;8454793;28;20047;-59
2023/10/22 06:33:29;;;;;;;3.50;0.50;;;;;;;13.70;100.00;99493.28;8458301;27;20672;-60
2023/10/22 06:37:29;;;;;;;0.38;0.20;;;;;;;13.63;100.00;99495.03;8455020;27;20051;-60
2023/10/22 06:41:30;;;;;;;0.55;0.32;;;;;;;13.73;100.00;99506.47;8453869;28;20048;-59
2023/10/22 06:45:30;;;;;;;2.83;0.40;;;;;;;13.73;100.00;99511.91;8455136;27;20573;-59
2023/10/22 06:49:31;;;;;;;0.65;0.20;;;;;;;13.79;100.00;99505.75;8453313;28;20494;-59
2023/10/22 06:53:31;;;;;;;1.90;0.40;;;;;;;13.78;100.00;99525.78;8454675;28;20107;-63
2023/10/22 06:57:32;;;;;;;4.07;0.60;;;;;;;13.81;100.00;99536.25;8453709;28;20104;-62
2023/10/22 07:01:32;;;;;;;2.88;0.70;;;;;;;13.75;100.00;99529.72;8454587;27;20047;-61
2023/10/22 07:05:33;;;;;;;2.20;0.40;;;;;;;13.69;100.00;99537.75;8452019;27;20044;-61
2023/10/22 07:09:33;;;;;;;3.17;0.52;;;;;;;13.75;100.00;99540.56;8454068;27;20088;-61
2023/10/22 07:13:34;;;;;;;1.90;0.60;;;;;;;13.73;100.00;99552.66;8453538;28;20118;-61
2023/10/22 07:17:34;;;;;;;3.47;0.70;;;;;;;13.78;100.00;99547.50;8451090;28;20104;-61
2023/10/22 07:21:35;;;;;;;2.35;0.60;;;;;;;13.74;100.00;99557.06;8464653;27;20420;-60
2023/10/22 07:25:36;;;;;;;0.73;0.32;;;;;;;13.82;100.00;99565.13;8459508;27;20043;-60
2023/10/22 07:29:36;;;;;;;1.92;0.50;;;;;;;13.81;100.00;99558.00;8452118;27;20513;-60
2023/10/22 07:33:37;;;;;;;0.60;0.40;;;;;;;13.90;100.00;99570.47;8453485;27;20046;-60
2023/10/22 07:37:40;;;;;;;2.10;0.60;;;;;;;13.91;100.00;99580.34;8452851;28;20104;-60
2023/10/22 07:41:41;;;;;;;1.70;0.60;;;;;;;13.94;100.00;99579.97;8449480;28;20418;-61
2023/10/22 07:45:41;;;;;;;1.88;0.80;;;;;;;13.99;100.00;99593.81;8453883;27;20058;-60
2023/10/22 07:49:42;;;;;;;4.30;0.88;;;;;;;13.99;100.00;99595.72;8449361;28;20080;-60
2023/10/22 07:53:43;;;;;;;2.00;0.93;;;;;;;13.99;100.00;99599.25;8450980;28;20052;-61
2023/10/22 07:57:44;;;;;;;0.80;0.70;;;;;;;13.98;100.00;99605.75;8449238;27;20042;-60
2023/10/22 08:01:44;;;;;;;4.50;1.00;;;;;;;13.89;100.00;99612.28;8455008;27;20047;-60
2023/10/22 08:05:45;;;;;;;3.50;0.68;;;;;;;13.98;100.00;99611.16;8452773;28;20035;-61
2023/10/22 08:09:46;;;;;;;1.83;0.60;;;;;;;13.96;100.00;99612.41;8452831;28;20043;-60
2023/10/22 08:13:46;;;;;;;0.73;0.40;;;;;;;13.92;100.00;99624.63;8452114;28;20040;-63
2023/10/22 08:17:46;;;;;;;2.08;0.47;;;;;;;13.95;100.00;99625.13;8453208;27;20110;-64
2023/10/22 08:21:47;;;;;;;1.50;0.50;;;;;;;13.86;100.00;99623.50;8454870;27;20049;-61
2023/10/22 08:25:50;;;;;;;0.88;0.50;;;;;;;13.99;100.00;99626.44;8438698;28;20112;-61
2023/10/22 08:29:50;;;;;;;1.65;0.40;;;;;;;13.97;100.00;99631.22;8458671;27;20413;-63
2023/10/22 08:33:51;;;;;;;1.63;0.50;;;;;;;13.99;100.00;99634.59;8456825;27;20052;-61
2023/10/22 08:37:51;;;;;;;2.85;0.60;;;;;;;14.10;100.00;99647.75;8457062;27;20504;-61
2023/10/22 08:42:01;;;;;;;1.63;0.50;;;;;;;14.18;100.00;99644.94;8456323;27;20103;-60
2023/10/22 08:46:02;;;;;;;1.25;0.43;;;;;;;14.16;100.00;99647.00;8455055;27;20078;-60
2023/10/22 08:50:02;;;;;;;0.98;0.45;;;;;;;14.23;100.00;99667.03;8454537;27;20039;-60
2023/10/22 08:54:04;;;;;;;1.55;0.40;;;;;;;14.21;100.00;99665.50;8457046;27;20047;-60
2023/10/22 08:58:04;;;;;;;2.28;0.32;;;;;;;14.35;100.00;99670.97;8442605;27;20051;-60
2023/10/22 09:02:08;;;;;;;0.95;0.30;;;;;;;14.39;100.00;99677.72;8449638;27;20035;-60
2023/10/22 09:06:09;;;;;;;1.10;0.40;;;;;;;14.52;100.00;99677.91;8450925;27;20039;-61
2023/10/22 09:10:23;;;;;;;1.40;0.32;;;;;;;14.52;100.00;99682.53;8455507;28;20035;-60
2023/10/22 09:14:24;;;;;;;;;;;;;;;14.50;100.00;99696.31;8454424;27;20028;-61
2023/10/22 09:18:24;;;;;;;2.00;0.30;;;;;;;14.51;100.00;99708.88;8454644;27;19920;-60
2023/10/22 09:22:26;;;;;;;1.85;0.28;;;;;;;14.45;100.00;99708.78;8454270;27;20074;-61
2023/10/22 09:26:40;;;;;;;1.02;0.60;;;;;;;14.34;100.00;99712.81;8452509;28;20036;-61
2023/10/22 09:30:42;;;;;;;1.10;0.27;;;;;;;14.32;100.00;99709.41;8440851;27;20690;-60
2023/10/22 09:34:42;;;;;;;1.88;1.02;;;;;;;14.36;100.00;99716.16;8448668;27;20784;-61
2023/10/22 09:38:48;;;;;;;2.45;0.43;;;;;;;14.36;100.00;99721.59;8457009;27;20044;-61
2023/10/22 09:42:50;;;;;;;5.10;4.35;;;;;;;14.30;100.00;99727.78;8454508;27;20046;-64
2023/10/22 09:46:51;;;;;;;1.75;0.40;;;;;;;14.33;100.00;99738.28;8451673;28;20046;-63
2023/10/22 09:50:53;;;;;;;3.72;0.50;;;;;;;14.42;100.00;99731.75;8452935;27;20417;-61
2023/10/22 09:54:54;;;;;;;1.95;0.80;;;;;;;14.28;100.00;99734.44;8457558;27;20037;-61
2023/10/22 09:59:03;;;;;;;3.63;1.08;;;;;;;14.34;100.00;99750.88;8454373;27;20035;-61
2023/10/22 10:03:04;;;;;;;1.45;0.47;;;;;;;14.37;100.00;99745.06;8455382;27;20035;-60
2023/10/22 10:07:04;;;;;;;1.25;0.50;;;;;;;14.42;100.00;99744.53;8447782;27;20043;-61
2023/10/22 10:11:07;;;;;;;2.03;0.40;;;;;;;14.49;100.00;99740.84;8450953;27;20039;-60
2023/10/22 10:15:29;;;;;;;2.10;0.60;;;;;;;14.66;100.00;99749.69;8450503;27;20036;-60
2023/10/22 10:19:30;;;;;;;0.98;0.43;;;;;;;14.80;100.00;99752.47;8448564;27;20044;-60
2023/10/22 10:23:31;;;;;;;0.70;0.50;;;;;;;14.96;100.00;99746.84;8449918;27;20051;-60
2023/10/22 10:27:31;;;;;;;1.42;0.30;;;;;;;14.96;100.00;99757.72;8444788;27;20630;-60
2023/10/22 10:31:32;;;;;;;1.50;0.45;;;;;;;14.82;100.00;99755.81;8446703;28;20218;-60
2023/10/22 10:35:44;;;;;;;1.02;0.30;;;;;;;14.95;100.00;99756.00;8449562;27;20043;-60
2023/10/22 10:39:49;;;;;;;2.13;0.40;;;;;;;14.89;100.00;99775.84;8446552;28;20413;-60
2023/10/22 10:44:05;;;;;;;6.68;0.80;;;;;;;14.88;100.00;99765.97;8449190;28;20054;-61
2023/10/22 10:48:06;;;;;;;3.90;0.60;;;;;;;14.96;100.00;99774.06;8448930;28;20549;-61
2023/10/22 10:52:07;;;;;;;4.15;0.50;;;;;;;14.85;100.00;99782.66;8449716;28;20062;-61
2023/10/22 10:56:09;;;;;;;1.67;0.40;;;;;;;14.87;100.00;99788.78;8448406;28;20039;-61
2023/10/22 11:00:19;;;;;;;1.75;0.40;;;;;;;14.86;100.00;99781.66;8451945;27;20035;-60
2023/10/22 11:04:21;;;;;;;1.98;0.57;;;;;;;15.03;100.00;99779.59;8448846;28;20032;-60
2023/10/22 11:08:22;;;;;;;2.20;0.63;;;;;;;15.12;100.00;99784.75;8449158;27;20036;-60
2023/10/22 11:12:24;;;;;;;0.93;0.50;;;;;;;15.08;100.00;99777.16;8448550;28;20039;-57
2023/10/22 11:16:24;;;;;;;0.70;0.45;;;;;;;15.13;100.00;99780.16;8447523;28;20094;-58
2023/10/22 11:20:25;;;;;;;6.07;0.60;;;;;;;15.11;100.00;99774.91;8445438;28;20634;-60
2023/10/22 11:24:29;;;;;;;3.35;1.20;;;;;;;15.28;100.00;99779.13;8448324;28;20050;-60
2023/10/22 11:28:30;;;;;;;;;;;;;;;15.29;100.00;99782.69;8447134;28;20422;-60
2023/10/22 11:32:31;;;;;;;2.85;0.70;;;;;;;15.33;100.00;99781.28;8446812;27;19946;-59
2023/10/22 11:36:34;;;;;;;2.72;0.60;;;;;;;15.52;100.00;99787.03;8446018;28;20556;-58
2023/10/22 11:40:38;;;;;;;2.67;0.43;;;;;;;15.68;100.00;99789.53;8449182;28;20116;-59
2023/10/22 11:44:43;;;;;;;1.15;0.38;;;;;;;15.70;100.00;99790.19;8447610;28;20100;-57
2023/10/22 11:48:44;;;;;;;1.58;0.40;;;;;;;15.67;100.00;99795.16;8428869;28;20074;-58
2023/10/22 11:56:58;;;;;;;3.17;0.55;;;;;;;15.69;100.00;99804.00;8401905;27;20401;-59
2023/10/22 12:00:59;;;;;;;3.22;0.40;;;;;;;15.63;100.00;99821.97;8389863;27;20040;-60
2023/10/22 12:04:59;;;;;;;3.15;0.70;;;;;;;15.67;100.00;99823.28;8391521;27;20639;-60
2023/10/22 12:09:00;;;;;;;1.05;0.80;;;;;;;15.69;100.00;99821.22;8395206;27;20440;-60
2023/10/22 12:13:01;;;;;;;2.08;0.70;;;;;;;15.86;100.00;99821.00;8394190;27;20093;-60
2023/10/22 12:17:02;;;;;;;2.00;0.63;;;;;;;15.73;100.00;99825.25;8394211;27;20044;-60
2023/10/22 12:21:02;;;;;;;1.23;0.80;;;;;;;15.69;100.00;99823.94;8393798;27;20105;-60
2023/10/22 12:25:04;;;;;;;1.90;0.85;;;;;;;15.67;100.00;99828.72;8395285;27;20102;-60
2023/10/22 12:29:05;;;;;;;3.13;0.98;;;;;;;15.74;100.00;99826.91;8425888;27;20506;-60
2023/10/22 12:33:05;;;;;;;1.63;1.00;;;;;;;15.89;100.00;99831.50;8408322;28;20450;-60
2023/10/22 12:37:06;;;;;;;1.45;1.08;;;;;;;16.03;100.00;99827.88;8409757;28;20064;-60
2023/10/22 12:41:06;;;;;;;4.15;1.58;;;;;;;16.02;100.00;99832.53;8411301;28;20114;-58
2023/10/22 12:45:09;;;;;;;3.25;1.92;;;;;;;15.95;100.00;99841.66;8410345;28;20162;-57
2023/10/22 12:49:09;;;;;;;2.92;1.70;;;;;;;16.04;100.00;99835.88;8392926;27;20059;-57
2023/10/22 12:53:11;;;;;;;1.70;1.13;;;;;;;16.19;100.00;99849.50;8387679;28;20052;-60
2023/10/22 12:57:11;;;;;;;5.57;1.83;;;;;;;16.29;100.00;99839.09;8401094;27;20057;-60
2023/10/22 13:01:15;;;;;;;2.08;0.82;;;;;;;16.21;100.00;99847.41;8382047;28;20128;-58
2023/10/22 13:05:15;;;;;;;1.30;0.98;;;;;;;16.26;100.00;99853.13;8383269;27;20048;-58
2023/10/22 13:09:16;;;;;;;2.25;1.58;;;;;;;16.28;100.00;99856.53;8367165;28;20336;-60
2023/10/22 13:13:16;;;;;;;2.25;1.10;;;;;;;16.57;100.00;99850.97;8371474;28;20102;-59
2023/10/22 13:17:17;;;;;;;0.73;0.50;;;;;;;16.68;100.00;99855.91;8397173;28;20377;-59
2023/10/22 13:21:17;;;;;;;1.55;0.70;;;;;;;16.70;100.00;99860.13;8374671;28;20255;-59
2023/10/22 13:25:18;;;;;;;2.90;0.70;;;;;;;16.48;100.00;99863.06;8368660;28;20040;-59
2023/10/22 13:29:18;;;;;;;1.08;0.88;;;;;;;16.52;100.00;99869.81;8361598;28;20056;-59
2023/10/22 13:33:19;;;;;;;1.70;1.50;;;;;;;16.54;100.00;99870.47;8364328;28;20056;-60
2023/10/22 13:37:19;;;;;;;4.25;2.42;;;;;;;16.55;100.00;99872.16;8368610;28;20117;-60
2023/10/22 13:41:20;;;;;;;2.67;2.42;;;;;;;16.49;100.00;99860.13;8369465;28;20095;-61
2023/10/22 13:45:21;;;;;;;4.35;2.78;;;;;;;16.47;100.00;99870.38;8368663;28;20348;-60
2023/10/22 13:49:21;;;;;;;3.50;2.42;;;;;;;16.51;100.00;99876.31;8369859;28;20044;-59
2023/10/22 13:53:22;;;;;;;2.47;2.28;;;;;;;16.47;100.00;99875.03;8369348;28;20051;-60
2023/10/22 13:57:23;;;;;;;2.50;2.30;;;;;;;16.35;100.00;99888.25;8370659;28;20037;-60
2023/10/22 14:01:23;;;;;;;3.85;2.63;;;;;;;16.27;100.00;99895.72;8358517;28;20099;-57
2023/10/22 14:05:24;;;;;;;2.92;1.77;;;;;;;16.25;100.00;99897.81;8353331;28;20057;-60
2023/10/22 14:09:24;;;;;;;1.35;0.60;;;;;;;16.08;100.00;99901.78;8350812;28;20106;-57
2023/10/22 14:13:24;;;;;;;1.35;0.40;;;;;;;16.04;100.00;99906.78;8357970;28;20067;-60
2023/10/22 14:17:25;;;;;;;2.25;1.58;;;;;;;16.10;100.00;99905.19;8365546;28;20052;-60
2023/10/22 14:21:25;;;;;;;1.90;0.45;;;;;;;16.11;100.00;99901.41;8370997;28;20523;-60
2023/10/22 14:25:26;;;;;;;2.63;1.60;;;;;;;16.05;100.00;99913.09;8370418;28;20052;-60
2023/10/22 14:29:27;;;;;;;4.03;1.75;;;;;;;16.10;100.00;99913.38;8368562;28;20044;-60
2023/10/22 14:33:27;;;;;;;5.53;2.22;;;;;;;16.21;100.00;99918.31;8368140;28;20037;-60
2023/10/22 14:37:31;;;;;;;5.57;3.08;;;;;;;16.24;100.00;99923.38;8361343;28;20044;-60
2023/10/22 14:41:31;;;;;;;4.28;3.00;;;;;;;16.21;100.00;99918.31;8360133;28;20090;-60
2023/10/22 14:45:31;;;;;;;5.90;3.60;;;;;;;16.25;100.00;99922.38;8369740;28;20746;-60
2023/10/22 14:49:32;;;;;;;5.13;3.58;;;;;;;16.26;100.00;99924.06;8384128;28;20762;-60
2023/10/22 14:53:33;;;;;;;6.32;3.63;;;;;;;16.32;100.00;99931.47;8383914;28;20041;-60
2023/10/22 14:57:33;;;;;;;3.83;3.53;;;;;;;16.36;100.00;99927.31;8380010;28;20139;-58
2023/10/22 15:01:34;;;;;;;4.07;3.40;;;;;;;16.42;100.00;99921.09;8383678;28;20040;-60
2023/10/22 15:05:35;;;;;;;4.00;3.60;;;;;;;16.39;100.00;99921.47;8383329;28;20043;-60
2023/10/22 15:09:35;;;;;;;5.70;3.75;;;;;;;16.37;100.00;99920.81;8383801;28;20032;-60
2023/10/22 15:13:36;;;;;;;4.10;3.67;;;;;;;16.38;100.00;99928.81;8383710;28;20123;-58
2023/10/22 15:17:36;;;;;;;4.82;4.03;;;;;;;16.33;100.00;99928.56;8380949;28;20060;-58
2023/10/22 15:21:37;;;;;;;4.80;3.35;;;;;;;16.32;100.00;99937.78;8383576;28;20094;-63
2023/10/22 15:25:44;;;;;;;4.95;4.00;;;;;;;16.35;100.00;99942.00;8383225;28;20411;-60
2023/10/22 15:29:45;;;;;;;4.20;3.30;;;;;;;16.28;100.00;99952.81;8376426;28;20079;-59
2023/10/22 15:33:45;;;;;;;3.00;2.70;;;;;;;16.38;100.00;99952.53;8382900;28;20518;-58
2023/10/22 15:37:46;;;;;;;10.85;4.93;;;;;;;16.48;100.00;99966.75;8382581;28;20392;-58
2023/10/22 15:41:46;;;;;;;1.10;0.70;;;;;;;16.38;100.00;99974.38;8382080;28;20048;-59
2023/10/22 15:45:49;;;;;;;1.02;0.40;;;;;;;16.33;100.00;99971.34;8381256;28;20044;-58
2023/10/22 15:49:49;;;;;;;1.52;0.30;;;;;;;16.25;100.00;99974.19;8382050;28;20033;-58
2023/10/22 15:53:50;;;;;;;1.80;0.90;;;;;;;16.10;100.00;99963.28;8382175;28;20495;-59
2023/10/22 15:57:51;;;;;;;0.50;0.30;;;;;;;16.06;100.00;99964.72;8381523;28;20045;-58
2023/10/22 16:01:52;;;;;;;2.80;2.45;;;;;;;15.94;100.00;99970.81;8381552;28;20090;-57
2023/10/22 16:05:52;;;;;;;3.70;3.35;;;;;;;15.88;100.00;99971.56;8381308;28;20170;-58
2023/10/22 16:09:54;;;;;;;6.05;2.40;;;;;;;15.88;100.00;99985.19;8379314;28;20054;-58
2023/10/22 16:13:54;;;;;;;1.83;1.38;;;;;;;15.87;100.00;99980.78;8380258;28;20036;-58
2023/10/22 16:17:55;;;;;;;5.82;4.47;;;;;;;15.82;100.00;99988.69;8380115;28;20156;-57
2023/10/22 16:21:56;;;;;;;4.30;2.70;;;;;;;15.84;100.00;99994.78;8380575;28;20457;-63
2023/10/22 16:25:56;;;;;;;3.85;1.65;;;;;;;15.79;100.00;99999.97;8381383;28;20087;-60
2023/10/22 16:29:57;;;;;;;2.55;1.05;;;;;;;15.74;100.00;100008.72;8381090;28;20402;-60
2023/10/22 16:33:57;;;;;;;1.48;0.60;;;;;;;15.67;100.00;100005.00;8377850;28;20052;-60
2023/10/22 16:37:58;;;;;;;0.60;0.40;;;;;;;15.62;100.00;100021.09;8362767;28;20123;-59
2023/10/22 16:41:58;;;;;;;5.55;2.00;;;;;;;15.63;100.00;100025.50;8383330;28;20106;-60
2023/10/22 16:46:00;;;;;;;19.67;6.00;;;;;;;15.51;100.00;100025.09;8387109;28;20487;-59
2023/10/22 16:50:01;;;;;;;12.90;4.65;;;;;;;15.50;100.00;100026.09;8386476;28;20028;-60
2023/10/22 16:54:01;;;;;;;11.38;7.20;;;;;;;15.47;100.00;100033.81;8383497;28;20051;-61
2023/10/22 16:58:03;;;;;;;17.98;9.07;;;;;;;15.44;100.00;100035.00;8383619;28;20109;-60
2023/10/22 17:02:03;;;;;;;18.63;6.95;;;;;;;15.50;100.00;100045.19;8385920;28;20527;-60
2023/10/22 17:06:04;;;;;;;6.32;4.47;;;;;;;15.48;100.00;100046.41;8383260;28;20483;-61
2023/10/22 17:10:08;;;;;;;6.85;4.07;;;;;;;15.41;100.00;100051.72;8383322;28;20063;-60
2023/10/22 17:14:08;;;;;;;4.63;3.20;;;;;;;15.43;100.00;100052.41;8385640;28;20040;-61
2023/10/22 17:18:11;;;;;;;2.30;1.30;;;;;;;15.41;100.00;100062.63;8385624;28;20267;-60
2023/10/22 17:22:12;;;;;;;3.78;1.80;;;;;;;15.39;100.00;100067.44;8382819;28;20032;-60
2023/10/22 17:26:13;;;;;;;3.60;2.42;;;;;;;15.37;100.00;100082.28;8386650;28;20036;-61
2023/10/22 17:30:14;;;;;;;1.98;1.20;;;;;;;15.41;100.00;100080.88;8386171;28;20048;-60
2023/10/22 17:34:14;;;;;;;4.90;3.67;;;;;;;15.31;100.00;100083.78;8386580;28;20537;-60
2023/10/22 17:38:15;;;;;;;14.13;9.13;;;;;;;15.30;100.00;100082.09;8385730;28;20044;-60
2023/10/22 17:42:15;;;;;;;15.13;8.48;;;;;;;15.30;100.00;100092.13;8386574;28;20049;-61
2023/10/22 17:46:16;;;;;;;10.80;6.90;;;;;;;15.32;100.00;100096.41;8385241;28;20047;-60
2023/10/22 17:50:16;;;;;;;6.35;5.15;;;;;;;15.27;100.00;100108.84;8385874;28;20064;-60
2023/10/22 17:54:17;;;;;;;2.08;1.70;;;;;;;15.32;100.00;100107.28;8385188;28;20044;-61
2023/10/22 17:58:17;;;;;;;1.50;1.08;;;;;;;15.35;100.00;100106.94;8376059;28;20040;-60
2023/10/22 18:02:17;;;;;;;3.25;0.90;;;;;;;15.39;100.00;100113.75;8399828;28;20044;-61
2023/10/22 18:06:18;;;;;;;4.93;2.47;;;;;;;15.42;100.00;100118.81;8384322;28;20494;-61
2023/10/22 18:10:18;;;;;;;3.60;2.00;;;;;;;15.48;100.00;100122.69;8384105;28;20123;-60
2023/10/22 18:14:19;;;;;;;3.03;1.40;;;;;;;15.53;100.00;100120.28;8382928;28;20342;-60
2023/10/22 18:18:19;;;;;;;2.95;1.67;;;;;;;15.51;100.00;100123.19;8384761;28;20411;-60
2023/10/22 18:22:20;;;;;;;2.17;1.23;;;;;;;15.51;100.00;100128.63;8399931;28;20515;-61
2023/10/22 18:26:20;;;;;;;1.63;1.15;;;;;;;15.47;100.00;100126.47;8384705;28;20044;-61
2023/10/22 18:30:21;;;;;;;2.00;0.70;;;;;;;15.49;100.00;100125.22;8384338;28;20411;-61
2023/10/22 18:34:21;;;;;;;1.30;0.80;;;;;;;15.47;100.00;100123.72;8384507;28;20036;-61
2023/10/22 18:38:22;;;;;;;0.93;0.70;;;;;;;15.46;100.00;100133.78;8384418;28;20041;-61
2023/10/22 18:42:22;;;;;;;0.80;0.70;;;;;;;15.40;100.00;100134.50;8385595;28;20044;-60
2023/10/22 18:46:24;;;;;;;1.40;0.80;;;;;;;15.35;100.00;100133.31;8385164;28;20118;-60
2023/10/22 18:50:24;;;;;;;1.83;1.00;;;;;;;15.36;100.00;100140.44;8387238;28;20131;-60